createdAt,value
2022-10-17T00:01:15.927Z,63.95
2022-10-17T00:03:54.012Z,64.28
2022-10-17T00:06:27.644Z,64.07
2022-10-17T00:09:05.860Z,64.42
2022-10-17T00:11:39.577Z,64.46
2022-10-17T00:14:13.136Z,64.45
2022-10-17T00:16:46.635Z,63.67
2022-10-17T00:19:21.565Z,64.07
2022-10-17T00:21:55.066Z,64.11
2022-10-17T00:24:28.246Z,63.75
2022-10-17T00:27:01.769Z,63.86
2022-10-17T00:29:34.993Z,63.46
2022-10-17T00:32:11.093Z,64.11
2022-10-17T00:34:53.835Z,64.16
2022-10-17T00:37:31.341Z,64.39
2022-10-17T00:40:10.686Z,64.40
2022-10-17T00:42:47.026Z,64.38
2022-10-17T00:45:29.078Z,64.46
2022-10-17T00:48:06.753Z,64.55
2022-10-17T00:50:47.783Z,64.53
2022-10-17T00:53:21.465Z,64.53
2022-10-17T00:55:55.887Z,64.57
2022-10-17T00:58:29.423Z,64.47
2022-10-17T01:01:03.302Z,63.92
2022-10-17T01:03:37.672Z,64.38
2022-10-17T01:06:12.280Z,63.76
2022-10-17T01:08:46.175Z,64.46
2022-10-17T01:11:31.508Z,64.62
2022-10-17T01:14:11.591Z,64.82
2022-10-17T01:16:54.549Z,65.06
2022-10-17T01:19:45.975Z,65.02
2022-10-17T01:22:28.130Z,65.54
2022-10-17T01:25:28.812Z,65.44
2022-10-17T01:28:24.279Z,65.72
2022-10-17T01:31:08.026Z,65.65
2022-10-17T01:33:49.837Z,65.89
2022-10-17T01:36:32.296Z,66.14
2022-10-17T01:39:15.862Z,66.17
2022-10-17T01:41:59.707Z,66.17
2022-10-17T01:44:40.637Z,66.38
2022-10-17T01:47:19.993Z,66.49
2022-10-17T01:49:58.813Z,66.70
2022-10-17T01:52:38.583Z,66.83
2022-10-17T01:55:15.444Z,66.94
2022-10-17T01:57:52.890Z,67.02
2022-10-17T02:00:28.988Z,66.83
2022-10-17T02:03:08.450Z,67.16
2022-10-17T02:05:45.201Z,67.08
2022-10-17T02:08:27.631Z,67.17
2022-10-17T02:11:04.968Z,67.17
2022-10-17T02:13:57.949Z,67.29
2022-10-17T02:16:39.013Z,67.55
2022-10-17T02:19:38.136Z,67.59
2022-10-17T02:22:23.400Z,67.44
2022-10-17T02:25:04.167Z,67.64
2022-10-17T02:27:47.866Z,67.86
2022-10-17T02:30:30.533Z,67.76
2022-10-17T02:33:09.013Z,67.90
2022-10-17T02:35:48.613Z,67.92
2022-10-17T02:38:24.374Z,67.81
2022-10-17T02:40:58.039Z,67.97
2022-10-17T02:43:31.534Z,67.43
2022-10-17T02:46:06.240Z,67.77
2022-10-17T02:48:44.350Z,67.86
2022-10-17T02:51:26.841Z,67.99
2022-10-17T02:54:09.635Z,68.19
2022-10-17T02:56:53.560Z,68.23
2022-10-17T02:59:32.029Z,68.11
2022-10-17T03:02:06.436Z,68.36
2022-10-17T03:04:41.229Z,68.39
2022-10-17T03:07:17.873Z,68.40
2022-10-17T03:09:51.430Z,68.68
2022-10-17T03:12:27.804Z,67.77
2022-10-17T03:15:01.662Z,68.04
2022-10-17T03:17:37.067Z,68.16
2022-10-17T03:20:11.223Z,68.15
2022-10-17T03:22:46.143Z,68.43
2022-10-17T03:25:19.583Z,68.25
2022-10-17T03:27:55.030Z,68.27
2022-10-17T03:30:28.371Z,67.58
2022-10-17T03:33:02.283Z,67.91
2022-10-17T03:35:35.760Z,68.01
2022-10-17T03:38:10.517Z,67.58
2022-10-17T03:40:44.120Z,67.92
2022-10-17T03:43:18.085Z,68.29
2022-10-17T03:45:51.422Z,67.64
2022-10-17T03:48:26.166Z,67.43
2022-10-17T03:51:03.946Z,67.81
2022-10-17T03:53:41.292Z,68.15
2022-10-17T03:56:16.822Z,68.37
2022-10-17T03:58:52.471Z,68.46
2022-10-17T04:01:25.936Z,68.17
2022-10-17T04:03:59.565Z,68.47
2022-10-17T04:06:37.223Z,68.74
2022-10-17T04:09:13.079Z,68.93
2022-10-17T04:12:16.017Z,69.00
2022-10-17T04:14:50.343Z,69.06
2022-10-17T04:17:24.220Z,69.19
2022-10-17T04:19:57.582Z,68.64
2022-10-17T04:22:31.393Z,68.92
2022-10-17T04:25:07.297Z,68.93
2022-10-17T04:27:45.156Z,69.26
2022-10-17T04:30:19.994Z,68.99
2022-10-17T04:32:53.521Z,69.08
2022-10-17T04:35:28.857Z,69.18
2022-10-17T04:38:08.726Z,69.13
2022-10-17T04:40:43.887Z,69.16
2022-10-17T04:43:17.963Z,69.18
2022-10-17T04:45:52.394Z,69.11
2022-10-17T04:48:25.660Z,68.62
2022-10-17T04:51:00.826Z,68.93
2022-10-17T04:53:46.715Z,69.11
2022-10-17T04:56:25.581Z,69.03
2022-10-17T04:59:00.819Z,69.34
2022-10-17T05:01:34.790Z,69.41
2022-10-17T05:04:07.982Z,68.87
2022-10-17T05:06:42.141Z,69.18
2022-10-17T05:09:35.739Z,69.27
2022-10-17T05:12:10.841Z,69.48
2022-10-17T05:14:50.861Z,69.45
2022-10-17T05:17:25.216Z,69.70
2022-10-17T05:20:00.988Z,69.23
2022-10-17T05:22:39.656Z,69.31
2022-10-17T05:25:20.003Z,69.45
2022-10-17T05:27:55.021Z,69.57
2022-10-17T05:30:31.438Z,69.97
2022-10-17T05:33:08.052Z,69.60
2022-10-17T05:35:41.323Z,69.29
2022-10-17T05:38:15.045Z,69.32
2022-10-17T05:40:50.559Z,69.25
2022-10-17T05:43:26.412Z,69.27
2022-10-17T05:46:00.181Z,69.38
2022-10-17T05:48:34.734Z,69.23
2022-10-17T05:51:10.116Z,69.11
2022-10-17T05:53:45.425Z,69.18
2022-10-17T05:56:24.326Z,68.93
2022-10-17T05:59:01.093Z,68.84
2022-10-17T06:01:46.147Z,68.53
2022-10-17T06:04:19.886Z,68.39
2022-10-17T06:06:53.714Z,68.44
2022-10-17T06:09:27.464Z,68.02
2022-10-17T06:12:01.964Z,67.88
2022-10-17T06:14:38.074Z,67.58
2022-10-17T06:17:20.869Z,67.76
2022-10-17T06:19:58.386Z,67.39
2022-10-17T06:22:32.491Z,67.04
2022-10-17T06:25:08.533Z,66.98
2022-10-17T06:27:42.310Z,66.66
2022-10-17T06:30:23.854Z,66.55
2022-10-17T06:32:59.244Z,66.38
2022-10-17T06:35:33.054Z,65.95
2022-10-17T06:38:07.021Z,65.86
2022-10-17T06:40:44.644Z,65.36
2022-10-17T06:43:21.417Z,65.02
2022-10-17T06:46:26.956Z,64.57
2022-10-17T06:49:04.996Z,64.14
2022-10-17T06:51:56.302Z,63.70
2022-10-17T06:54:53.262Z,63.44
2022-10-17T06:57:41.263Z,63.05
2022-10-17T07:00:33.778Z,62.62
2022-10-17T07:03:10.223Z,62.34
2022-10-17T07:05:43.985Z,62.09
2022-10-17T07:08:17.605Z,61.66
2022-10-17T07:10:52.091Z,61.00
2022-10-17T07:13:27.044Z,60.43
2022-10-17T07:16:02.006Z,59.91
2022-10-17T07:18:44.810Z,59.05
2022-10-17T07:21:18.867Z,58.09
2022-10-17T07:23:55.723Z,57.23
2022-10-17T07:26:29.300Z,55.95
2022-10-17T07:29:06.602Z,55.10
2022-10-17T07:31:49.056Z,54.06
2022-10-17T07:34:27.605Z,52.73
2022-10-17T07:37:01.660Z,51.31
2022-10-17T07:39:35.893Z,50.33
2022-10-17T07:42:09.788Z,48.89
2022-10-17T07:44:44.279Z,47.85
2022-10-17T07:47:19.278Z,46.68
2022-10-17T07:49:55.429Z,45.29
2022-10-17T07:52:29.663Z,44.55
2022-10-17T07:55:03.435Z,43.43
2022-10-17T07:57:37.058Z,42.44
2022-10-17T08:00:12.587Z,40.99
2022-10-17T08:02:46.120Z,39.80
2022-10-17T08:05:21.255Z,38.75
2022-10-17T08:07:54.912Z,37.73
2022-10-17T08:10:29.794Z,36.80
2022-10-17T08:13:03.705Z,36.12
2022-10-17T08:15:40.040Z,35.01
2022-10-17T08:18:14.648Z,34.66
2022-10-17T08:20:49.538Z,33.20
2022-10-17T08:23:23.318Z,32.23
2022-10-17T08:25:59.953Z,30.70
2022-10-17T08:28:36.710Z,29.43
2022-10-17T08:31:12.318Z,28.58
2022-10-17T08:33:46.561Z,26.98
2022-10-17T08:36:22.806Z,26.30
2022-10-17T08:38:56.694Z,25.23
2022-10-17T08:41:45.519Z,25.00
2022-10-17T08:44:31.365Z,24.37
2022-10-17T08:47:10.172Z,23.68
2022-10-17T08:49:49.019Z,23.28
2022-10-17T08:52:41.379Z,23.32
2022-10-17T08:57:56.716Z,22.99
2022-10-17T09:00:32.367Z,22.51
2022-10-17T09:03:18.929Z,21.90
2022-10-17T09:05:57.728Z,21.10
2022-10-17T09:08:42.135Z,20.99
2022-10-17T09:11:30.549Z,20.68
2022-10-17T09:14:17.630Z,20.90
2022-10-17T09:17:13.644Z,20.65
2022-10-17T09:20:03.639Z,20.14
2022-10-17T09:22:42.813Z,19.43
2022-10-17T09:25:20.566Z,19.80
2022-10-17T09:28:08.168Z,19.54
2022-10-17T09:30:45.836Z,18.93
2022-10-17T09:33:34.549Z,19.42
2022-10-17T09:36:14.570Z,19.04
2022-10-17T09:38:52.286Z,18.82
2022-10-17T09:41:44.941Z,19.07
2022-10-17T09:44:23.060Z,20.03
2022-10-17T09:47:14.172Z,20.21
2022-10-17T09:49:49.045Z,20.03
2022-10-17T09:52:28.935Z,20.18
2022-10-17T09:55:07.739Z,19.80
2022-10-17T09:57:57.576Z,19.62
2022-10-17T10:00:34.441Z,18.91
2022-10-17T10:03:16.820Z,18.76
2022-10-17T10:06:05.891Z,18.43
2022-10-17T10:08:51.095Z,18.34
2022-10-17T10:11:27.599Z,18.79
2022-10-17T10:14:13.710Z,17.98
2022-10-17T10:16:50.054Z,18.23
2022-10-17T10:19:31.618Z,18.04
2022-10-17T10:22:07.854Z,17.76
2022-10-17T10:24:41.774Z,17.90
2022-10-17T10:27:19.862Z,17.27
2022-10-17T10:29:55.264Z,17.37
2022-10-17T10:32:30.912Z,17.39
2022-10-17T10:35:08.985Z,17.34
2022-10-17T10:37:47.999Z,17.32
2022-10-17T10:40:25.133Z,17.38
2022-10-17T10:43:05.227Z,17.05
2022-10-17T10:45:48.975Z,17.60
2022-10-17T10:48:24.671Z,17.25
2022-10-17T10:51:01.901Z,17.10
2022-10-17T10:53:44.379Z,17.64
2022-10-17T10:56:22.081Z,17.27
2022-10-17T10:59:00.082Z,17.36
2022-10-17T11:01:48.005Z,17.54
2022-10-17T11:04:28.579Z,17.37
2022-10-17T11:07:12.827Z,17.94
2022-10-17T11:09:56.567Z,18.14
2022-10-17T11:12:36.090Z,17.83
2022-10-17T11:15:20.761Z,17.77
2022-10-17T11:18:01.144Z,17.62
2022-10-17T11:20:51.772Z,18.25
2022-10-17T11:23:31.784Z,18.89
2022-10-17T11:26:20.052Z,19.43
2022-10-17T11:28:54.512Z,20.60
2022-10-17T11:31:39.652Z,22.00
2022-10-17T11:34:23.956Z,22.05
2022-10-17T11:37:24.803Z,22.25
2022-10-17T11:40:07.775Z,21.86
2022-10-17T11:42:47.511Z,20.85
2022-10-17T11:45:23.896Z,20.47
2022-10-17T11:52:56.414Z,19.22
2022-10-17T11:55:34.408Z,18.66
2022-10-17T12:05:02.028Z,17.54
2022-10-17T12:14:45.239Z,17.17
2022-10-17T12:17:33.208Z,16.97
2022-10-17T12:28:45.043Z,17.24
2022-10-17T12:35:25.784Z,18.00
2022-10-17T12:46:11.326Z,19.18
2022-10-17T12:56:22.395Z,21.25
2022-10-17T13:07:21.087Z,22.10
2022-10-17T13:09:54.910Z,21.84
2022-10-17T13:12:57.170Z,21.83
2022-10-17T13:15:36.179Z,22.43
2022-10-17T13:18:21.158Z,23.03
2022-10-17T13:21:09.787Z,23.44
2022-10-17T13:23:50.907Z,24.54
2022-10-17T13:26:26.014Z,25.45
2022-10-17T13:29:04.149Z,26.00
2022-10-17T13:31:40.062Z,26.75
2022-10-17T13:34:18.941Z,27.78
2022-10-17T13:36:54.857Z,28.92
2022-10-17T13:39:58.325Z,30.09
2022-10-17T13:42:40.405Z,31.34
2022-10-17T13:45:20.653Z,32.26
2022-10-17T13:47:56.674Z,33.31
2022-10-17T13:50:44.051Z,34.31
2022-10-17T13:53:22.210Z,34.61
2022-10-17T13:56:26.290Z,35.39
2022-10-17T13:58:59.327Z,36.04
2022-10-17T14:01:33.290Z,37.15
2022-10-17T14:04:10.445Z,37.73
2022-10-17T14:06:52.312Z,37.89
2022-10-17T14:09:28.313Z,38.83
2022-10-17T14:12:12.978Z,39.26
2022-10-17T14:15:10.499Z,39.68
2022-10-17T14:17:46.013Z,39.88
2022-10-17T14:23:38.005Z,40.61
2022-10-17T14:26:18.027Z,41.21
2022-10-17T14:29:08.420Z,41.18
2022-10-17T14:31:41.951Z,42.15
2022-10-17T14:34:28.021Z,42.42
2022-10-17T14:37:19.819Z,42.62
2022-10-17T14:39:55.420Z,42.89
2022-10-17T14:42:29.200Z,43.28
2022-10-17T14:45:08.797Z,43.59
2022-10-17T14:47:44.212Z,44.14
2022-10-17T14:50:24.729Z,44.45
2022-10-17T14:53:05.062Z,44.72
2022-10-17T14:55:44.744Z,45.10
2022-10-17T14:58:36.449Z,45.20
2022-10-17T15:01:20.620Z,45.03
2022-10-17T15:03:54.624Z,45.08
2022-10-17T15:06:30.220Z,45.42
2022-10-17T15:09:04.749Z,45.59
2022-10-17T15:11:38.445Z,45.65
2022-10-17T15:14:12.982Z,45.82
2022-10-17T15:16:49.236Z,46.25
2022-10-17T15:19:22.895Z,46.09
2022-10-17T15:21:56.495Z,46.63
2022-10-17T15:24:30.094Z,46.80
2022-10-17T15:27:03.759Z,46.86
2022-10-17T15:29:37.294Z,46.93
2022-10-17T15:32:12.704Z,47.17
2022-10-17T15:34:46.482Z,47.63
2022-10-17T15:37:23.570Z,47.37
2022-10-17T15:39:57.230Z,47.46
2022-10-17T15:42:31.971Z,47.41
2022-10-17T15:47:54.121Z,48.10
2022-10-17T15:50:31.245Z,48.17
2022-10-17T15:53:09.602Z,48.21
2022-10-17T15:55:43.207Z,48.27
2022-10-17T15:58:17.364Z,48.53
2022-10-17T16:00:51.040Z,48.92
2022-10-17T16:03:26.038Z,48.84
2022-10-17T16:05:59.688Z,48.95
2022-10-17T16:08:33.234Z,49.34
2022-10-17T16:11:07.038Z,49.31
2022-10-17T16:13:41.694Z,49.20
2022-10-17T16:16:15.344Z,49.52
2022-10-17T16:18:50.853Z,49.63
2022-10-17T16:21:27.314Z,49.50
2022-10-17T16:24:01.472Z,49.58
2022-10-17T16:26:35.142Z,49.87
2022-10-17T16:29:10.209Z,50.03
2022-10-17T16:31:46.004Z,49.76
2022-10-17T16:34:21.076Z,50.13
2022-10-17T16:36:54.624Z,50.16
2022-10-17T16:42:01.971Z,50.09
2022-10-17T16:44:35.752Z,50.04
2022-10-17T16:47:10.020Z,50.08
2022-10-17T16:49:45.541Z,50.22
2022-10-17T16:52:19.152Z,50.35
2022-10-17T16:54:53.397Z,50.53
2022-10-17T16:57:27.128Z,50.88
2022-10-17T17:00:00.981Z,50.83
2022-10-17T17:02:34.867Z,51.29
2022-10-17T17:05:10.636Z,51.17
2022-10-17T17:07:44.350Z,51.29
2022-10-17T17:10:18.229Z,51.24
2022-10-17T17:12:51.853Z,51.29
2022-10-17T17:15:25.626Z,51.40
2022-10-17T17:18:04.036Z,51.74
2022-10-17T17:20:40.628Z,51.75
2022-10-17T17:23:16.000Z,51.84
2022-10-17T17:25:50.870Z,51.68
2022-10-17T17:28:26.223Z,52.09
2022-10-17T17:30:59.932Z,51.96
2022-10-17T17:33:33.935Z,52.31
2022-10-17T17:36:11.601Z,52.45
2022-10-17T17:38:46.143Z,52.38
2022-10-17T17:41:21.297Z,52.65
2022-10-17T17:43:55.985Z,52.60
2022-10-17T17:46:29.671Z,52.93
2022-10-17T17:49:03.329Z,52.66
2022-10-17T17:51:41.585Z,53.05
2022-10-17T17:54:15.792Z,53.10
2022-10-17T17:56:51.738Z,53.00
2022-10-17T17:59:25.439Z,53.27
2022-10-17T18:01:59.087Z,53.43
2022-10-17T18:04:33.200Z,53.16
2022-10-17T18:07:08.174Z,53.62
2022-10-17T18:09:41.928Z,53.49
2022-10-17T18:12:15.639Z,53.61
2022-10-17T18:14:49.765Z,53.54
2022-10-17T18:17:26.983Z,53.66
2022-10-17T18:20:00.616Z,53.75
2022-10-17T18:22:37.224Z,53.98
2022-10-17T18:25:11.232Z,53.87
2022-10-17T18:27:44.863Z,53.90
2022-10-17T18:30:25.476Z,54.20
2022-10-17T18:33:01.102Z,54.26
2022-10-17T18:35:36.559Z,54.34
2022-10-17T18:38:15.334Z,54.41
2022-10-17T18:40:51.259Z,54.56
2022-10-17T18:46:10.850Z,54.48
2022-10-17T18:48:49.136Z,54.37
2022-10-17T18:51:32.768Z,54.38
2022-10-17T18:54:12.637Z,54.38
2022-10-17T18:56:46.398Z,54.43
2022-10-17T18:59:20.927Z,54.62
2022-10-17T19:01:54.738Z,54.72
2022-10-17T19:04:28.797Z,54.59
2022-10-17T19:07:02.431Z,54.73
2022-10-17T19:09:37.606Z,54.84
2022-10-17T19:12:11.331Z,54.97
2022-10-17T19:14:45.035Z,54.93
2022-10-17T19:17:18.736Z,54.88
2022-10-17T19:19:55.945Z,54.76
2022-10-17T19:22:33.308Z,55.00
2022-10-17T19:25:08.943Z,55.16
2022-10-17T19:27:45.345Z,55.04
2022-10-17T19:30:21.532Z,55.38
2022-10-17T19:32:55.171Z,55.24
2022-10-17T19:35:28.729Z,55.28
2022-10-17T19:38:02.273Z,55.44
2022-10-17T19:40:43.397Z,54.92
2022-10-17T19:43:17.047Z,55.06
2022-10-17T19:45:56.859Z,54.75
2022-10-17T19:48:33.428Z,55.18
2022-10-17T19:51:08.044Z,55.36
2022-10-17T19:53:41.686Z,55.51
2022-10-17T19:56:18.741Z,55.57
2022-10-17T19:58:54.180Z,55.77
2022-10-17T20:01:30.017Z,55.89
2022-10-17T20:04:04.137Z,55.60
2022-10-17T20:06:38.104Z,55.77
2022-10-17T20:09:18.068Z,55.92
2022-10-17T20:11:53.697Z,55.97
2022-10-17T20:14:27.382Z,55.82
2022-10-17T20:17:01.062Z,55.86
2022-10-17T20:19:35.070Z,55.79
2022-10-17T20:22:08.633Z,55.86
2022-10-17T20:24:41.828Z,55.00
2022-10-17T20:27:16.767Z,55.54
2022-10-17T20:29:50.398Z,55.80
2022-10-17T20:32:24.065Z,55.67
2022-10-17T20:34:57.659Z,55.68
2022-10-17T20:37:31.212Z,55.20
2022-10-17T20:40:33.041Z,55.48
2022-10-17T20:43:07.670Z,55.62
2022-10-17T20:45:51.188Z,55.61
2022-10-17T20:48:25.641Z,55.45
2022-10-17T20:51:07.481Z,55.50
2022-10-17T20:53:44.061Z,55.68
2022-10-17T20:56:21.466Z,55.48
2022-10-17T20:59:01.574Z,55.47
2022-10-17T21:01:37.406Z,55.42
2022-10-17T21:04:40.327Z,55.04
2022-10-17T21:07:04.734Z,55.17
2022-10-17T21:09:46.306Z,54.99
2022-10-17T21:12:31.341Z,54.85
2022-10-17T21:15:14.771Z,54.78
2022-10-17T21:17:48.310Z,54.65
2022-10-17T21:20:21.907Z,54.50
2022-10-17T21:22:55.579Z,54.51
2022-10-17T21:25:33.033Z,54.54
2022-10-17T21:28:06.770Z,54.28
2022-10-17T21:30:43.970Z,54.27
2022-10-17T21:33:17.487Z,54.17
2022-10-17T21:35:55.599Z,54.17
2022-10-17T21:38:31.667Z,54.20
2022-10-17T21:41:06.074Z,54.13
2022-10-17T21:43:39.825Z,54.28
2022-10-17T21:46:16.660Z,54.22
2022-10-17T21:48:51.924Z,53.99
2022-10-17T21:51:28.652Z,54.09
2022-10-17T21:54:06.060Z,53.81
2022-10-17T21:56:39.634Z,53.91
2022-10-17T21:59:12.947Z,53.72
2022-10-17T22:01:48.173Z,53.87
2022-10-17T22:04:21.863Z,53.93
2022-10-17T22:06:55.371Z,53.82
2022-10-17T22:09:28.719Z,53.53
2022-10-17T22:12:02.217Z,53.78
2022-10-17T22:14:35.791Z,53.69
2022-10-17T22:17:11.052Z,53.81
2022-10-17T22:19:44.549Z,53.96
2022-10-17T22:22:17.680Z,53.64
2022-10-17T22:24:51.243Z,53.84
2022-10-17T22:27:24.433Z,53.32
2022-10-17T22:29:57.937Z,53.86
2022-10-17T22:32:32.538Z,53.18
2022-10-17T22:35:06.782Z,53.39
2022-10-17T22:37:40.483Z,53.51
2022-10-17T22:40:14.666Z,53.73
2022-10-17T22:42:48.300Z,53.49
2022-10-17T22:45:21.802Z,53.63
2022-10-17T22:47:57.077Z,53.58
2022-10-17T22:50:30.739Z,53.58
2022-10-17T22:53:04.445Z,53.54
2022-10-17T22:55:42.026Z,53.55
2022-10-17T22:58:18.164Z,53.58
2022-10-17T23:00:52.791Z,53.46
2022-10-17T23:03:31.890Z,53.56
2022-10-17T23:06:05.546Z,53.55
2022-10-17T23:08:39.411Z,53.56
2022-10-17T23:11:13.220Z,53.64
2022-10-17T23:13:46.723Z,53.82
2022-10-17T23:16:25.250Z,53.28
2022-10-17T23:19:00.357Z,53.55
2022-10-17T23:21:33.848Z,53.96
2022-10-17T23:24:07.969Z,53.92
2022-10-17T23:26:42.626Z,54.06
2022-10-17T23:29:16.100Z,53.96
2022-10-17T23:31:49.946Z,54.17
2022-10-17T23:34:24.896Z,54.35
2022-10-17T23:36:58.744Z,54.29
2022-10-17T23:39:32.303Z,54.44
2022-10-17T23:42:05.700Z,54.07
2022-10-17T23:44:41.002Z,54.31
2022-10-17T23:47:14.488Z,54.50
2022-10-17T23:49:49.471Z,54.81
2022-10-17T23:52:22.994Z,54.76
2022-10-17T23:54:56.470Z,55.03
2022-10-17T23:57:30.236Z,54.96
